createdAt,value
2022-09-14T00:01:40.327Z,2.20
2022-09-14T00:04:13.001Z,2.05
2022-09-14T00:06:42.676Z,2.15
2022-09-14T00:09:16.175Z,2.45
2022-09-14T00:11:44.402Z,2.83
2022-09-14T00:14:14.501Z,2.45
2022-09-14T00:16:43.859Z,1.92
2022-09-14T00:19:19.398Z,2.13
2022-09-14T00:21:50.859Z,1.58
2022-09-14T00:24:19.373Z,1.63
2022-09-14T00:26:47.535Z,1.23
2022-09-14T00:29:17.282Z,1.00
2022-09-14T00:31:45.545Z,1.10
2022-09-14T00:34:16.304Z,1.10
2022-09-14T00:36:47.531Z,0.75
2022-09-14T00:39:17.231Z,1.20
2022-09-14T00:41:48.232Z,2.47
2022-09-14T00:44:54.934Z,3.03
2022-09-14T00:47:25.978Z,2.70
2022-09-14T00:49:54.642Z,2.30
2022-09-14T00:52:26.013Z,1.75
2022-09-14T00:54:57.364Z,1.85
2022-09-14T00:57:27.003Z,2.33
2022-09-14T00:59:55.674Z,2.00
2022-09-14T01:02:28.399Z,2.03
2022-09-14T01:04:57.404Z,2.28
2022-09-14T01:07:42.873Z,2.45
2022-09-14T01:10:21.943Z,2.25
2022-09-14T01:13:06.368Z,2.65
2022-09-14T01:15:44.139Z,3.13
2022-09-14T01:18:19.829Z,3.08
2022-09-14T01:20:55.270Z,2.60
2022-09-14T01:23:30.675Z,3.08
2022-09-14T01:26:23.136Z,4.30
2022-09-14T01:28:57.459Z,3.90
2022-09-14T01:31:30.364Z,1.73
2022-09-14T01:34:06.796Z,1.23
2022-09-14T01:36:37.464Z,1.77
2022-09-14T01:39:06.914Z,1.52
2022-09-14T01:41:36.546Z,1.17
2022-09-14T01:44:10.876Z,1.65
2022-09-14T01:46:42.717Z,1.30
2022-09-14T01:49:17.418Z,1.80
2022-09-14T01:51:55.696Z,2.63
2022-09-14T01:54:28.873Z,2.42
2022-09-14T01:57:00.638Z,1.88
2022-09-14T01:59:33.846Z,2.00
2022-09-14T02:02:07.228Z,1.77
2022-09-14T02:04:52.134Z,1.58
2022-09-14T02:07:20.750Z,2.13
2022-09-14T02:09:49.918Z,2.63
2022-09-14T02:12:18.593Z,2.17
2022-09-14T02:14:48.582Z,2.13
2022-09-14T02:17:17.078Z,1.95
2022-09-14T02:19:52.577Z,2.25
2022-09-14T02:22:20.995Z,1.40
2022-09-14T02:24:49.747Z,2.05
2022-09-14T02:27:17.906Z,2.05
2022-09-14T02:29:48.035Z,1.67
2022-09-14T02:32:24.399Z,2.10
2022-09-14T02:34:59.295Z,2.13
2022-09-14T02:37:38.783Z,2.88
2022-09-14T02:40:14.388Z,2.35
2022-09-14T02:42:49.058Z,2.35
2022-09-14T02:45:28.504Z,2.95
2022-09-14T02:48:04.407Z,2.50
2022-09-14T02:50:40.809Z,3.40
2022-09-14T02:53:14.624Z,3.33
2022-09-14T02:55:48.032Z,4.30
2022-09-14T02:58:16.880Z,4.88
2022-09-14T03:00:48.504Z,4.93
2022-09-14T03:03:18.192Z,5.80
2022-09-14T03:05:46.393Z,5.28
2022-09-14T03:08:14.805Z,5.63
2022-09-14T03:10:44.439Z,5.82
2022-09-14T03:13:13.232Z,5.93
2022-09-14T03:15:41.687Z,6.18
2022-09-14T03:18:14.452Z,7.00
2022-09-14T03:20:43.552Z,7.00
2022-09-14T03:23:12.837Z,6.75
2022-09-14T03:25:43.486Z,6.13
2022-09-14T03:28:12.992Z,6.30
2022-09-14T03:30:41.444Z,6.70
2022-09-14T03:33:11.482Z,7.07
2022-09-14T03:35:39.663Z,8.35
2022-09-14T03:38:08.143Z,7.40
2022-09-14T03:40:36.337Z,7.70
2022-09-14T03:43:04.644Z,8.18
2022-09-14T03:45:32.808Z,7.75
2022-09-14T03:48:01.023Z,8.98
2022-09-14T03:50:30.623Z,8.13
2022-09-14T03:52:59.394Z,9.13
2022-09-14T03:55:27.712Z,7.90
2022-09-14T03:57:56.434Z,9.15
2022-09-14T04:00:24.798Z,8.63
2022-09-14T04:02:53.102Z,9.32
2022-09-14T04:05:22.055Z,9.52
2022-09-14T04:07:51.743Z,9.93
2022-09-14T04:10:20.076Z,9.90
2022-09-14T04:12:48.322Z,10.38
2022-09-14T04:15:16.668Z,10.23
2022-09-14T04:17:44.982Z,11.25
2022-09-14T04:20:13.477Z,10.18
2022-09-14T04:22:41.671Z,9.95
2022-09-14T04:25:11.457Z,10.73
2022-09-14T04:27:39.712Z,11.73
2022-09-14T04:30:08.802Z,10.07
2022-09-14T04:32:37.039Z,10.82
2022-09-14T04:35:05.605Z,10.63
2022-09-14T04:37:34.393Z,10.30
2022-09-14T04:40:02.803Z,9.60
2022-09-14T04:42:32.418Z,10.10
2022-09-14T04:45:00.620Z,10.10
2022-09-14T04:47:30.826Z,10.00
2022-09-14T04:49:58.962Z,9.43
2022-09-14T04:52:27.210Z,8.43
2022-09-14T04:54:55.400Z,9.57
2022-09-14T04:57:23.765Z,8.40
2022-09-14T04:59:53.281Z,7.97
2022-09-14T05:02:21.696Z,9.30
2022-09-14T05:04:50.121Z,8.43
2022-09-14T05:07:18.280Z,8.13
2022-09-14T05:09:46.466Z,8.88
2022-09-14T05:12:14.593Z,9.25
2022-09-14T05:14:42.991Z,9.35
2022-09-14T05:17:12.483Z,9.88
2022-09-14T05:19:40.631Z,9.05
2022-09-14T05:22:08.864Z,8.18
2022-09-14T05:24:36.998Z,11.40
2022-09-14T05:27:05.409Z,9.75
2022-09-14T05:29:33.659Z,8.20
2022-09-14T05:32:02.181Z,9.60
2022-09-14T05:34:31.656Z,8.43
2022-09-14T05:36:59.948Z,9.75
2022-09-14T05:39:28.132Z,9.15
2022-09-14T05:41:56.287Z,9.20
2022-09-14T05:44:24.561Z,9.40
2022-09-14T05:46:52.817Z,8.60
2022-09-14T05:49:21.068Z,8.70
2022-09-14T05:51:50.765Z,7.72
2022-09-14T05:54:19.149Z,8.27
2022-09-14T05:56:47.402Z,8.68
2022-09-14T05:59:15.737Z,8.00
2022-09-14T06:01:44.109Z,7.82
2022-09-14T06:04:13.058Z,8.38
2022-09-14T06:06:44.757Z,8.52
2022-09-14T06:09:21.760Z,9.35
2022-09-14T06:11:50.070Z,9.35
2022-09-14T06:14:20.019Z,9.13
2022-09-14T06:16:48.697Z,10.00
2022-09-14T06:19:17.055Z,8.75
2022-09-14T06:21:45.264Z,11.13
2022-09-14T06:24:13.619Z,14.10
2022-09-14T06:26:43.197Z,12.55
2022-09-14T06:29:11.507Z,13.45
2022-09-14T06:31:39.683Z,13.18
2022-09-14T06:34:07.929Z,12.80
2022-09-14T06:36:36.155Z,12.70
2022-09-14T06:39:05.560Z,12.15
2022-09-14T06:41:34.545Z,12.90
2022-09-14T06:44:04.829Z,11.35
2022-09-14T06:46:34.747Z,10.65
2022-09-14T06:49:06.179Z,10.07
2022-09-14T06:51:36.280Z,9.95
2022-09-14T06:54:05.409Z,9.80
2022-09-14T06:56:35.519Z,8.23
2022-09-14T06:59:05.949Z,7.20
2022-09-14T07:01:34.825Z,6.57
2022-09-14T07:04:04.085Z,4.82
2022-09-14T07:06:34.132Z,4.30
2022-09-14T07:09:05.071Z,3.72
2022-09-14T07:11:33.828Z,3.00
2022-09-14T07:14:02.334Z,3.47
2022-09-14T07:16:33.486Z,3.67
2022-09-14T07:19:03.435Z,3.42
2022-09-14T07:21:32.956Z,4.13
2022-09-14T07:24:01.774Z,4.20
2022-09-14T07:26:32.180Z,4.90
2022-09-14T07:29:02.202Z,5.38
2022-09-14T07:31:33.788Z,5.97
2022-09-14T07:34:03.773Z,6.40
2022-09-14T07:36:34.972Z,6.53
2022-09-14T07:39:05.548Z,7.88
2022-09-14T07:41:35.189Z,7.15
2022-09-14T07:44:06.188Z,8.70
2022-09-14T07:46:39.878Z,7.70
2022-09-14T07:49:09.250Z,7.25
2022-09-14T07:51:38.258Z,7.93
2022-09-14T07:54:07.804Z,7.03
2022-09-14T07:56:36.420Z,3.58
2022-09-14T08:01:55.390Z,3.75
2022-09-14T08:04:23.724Z,2.75
2022-09-14T08:06:51.940Z,3.05
2022-09-14T08:09:20.137Z,3.63
2022-09-14T08:11:48.363Z,3.08
2022-09-14T08:14:16.676Z,3.17
2022-09-14T08:16:44.900Z,2.65
2022-09-14T08:19:17.185Z,3.30
2022-09-14T08:21:47.475Z,3.10
2022-09-14T08:24:18.187Z,3.00
2022-09-14T08:26:46.602Z,3.33
2022-09-14T08:29:15.809Z,4.10
2022-09-14T08:31:45.821Z,4.15
2022-09-14T08:34:16.935Z,4.85
2022-09-14T08:36:47.000Z,4.93
2022-09-14T08:39:17.243Z,4.55
2022-09-14T08:41:53.013Z,4.45
2022-09-14T08:44:26.207Z,3.80
2022-09-14T08:47:00.378Z,4.78
2022-09-14T08:49:42.459Z,3.88
2022-09-14T08:52:19.830Z,4.13
2022-09-14T08:54:53.582Z,4.28
2022-09-14T08:57:28.540Z,3.22
2022-09-14T09:00:06.890Z,4.10
2022-09-14T09:02:57.524Z,4.32
2022-09-14T09:05:35.335Z,4.28
2022-09-14T09:08:14.065Z,3.50
2022-09-14T09:10:42.960Z,4.70
2022-09-14T09:13:16.385Z,4.72
2022-09-14T09:15:49.341Z,4.70
2022-09-14T09:18:21.238Z,3.50
2022-09-14T09:20:53.401Z,3.22
2022-09-14T09:23:23.439Z,2.65
2022-09-14T09:25:58.836Z,2.45
2022-09-14T09:28:28.913Z,2.80
2022-09-14T09:31:00.394Z,2.20
2022-09-14T09:33:29.470Z,2.00
2022-09-14T09:35:59.105Z,1.70
2022-09-14T09:38:29.479Z,2.00
2022-09-14T09:41:12.043Z,1.90
2022-09-14T09:43:58.901Z,1.88
2022-09-14T09:46:28.137Z,1.85
2022-09-14T09:48:56.545Z,2.00
2022-09-14T09:51:31.574Z,2.58
2022-09-14T09:54:10.374Z,2.60
2022-09-14T09:56:40.677Z,2.22
2022-09-14T09:59:24.859Z,1.70
2022-09-14T10:01:55.850Z,1.77
2022-09-14T10:04:29.910Z,2.17
2022-09-14T10:06:59.550Z,2.70
2022-09-14T10:09:29.191Z,3.15
2022-09-14T10:11:59.888Z,3.17
2022-09-14T10:14:32.126Z,4.15
2022-09-14T10:17:08.530Z,4.40
2022-09-14T10:19:37.811Z,4.45
2022-09-14T10:22:24.247Z,4.00
2022-09-14T10:24:57.392Z,2.17
2022-09-14T10:27:39.770Z,2.55
2022-09-14T10:30:14.323Z,2.28
2022-09-14T10:32:46.556Z,2.63
2022-09-14T10:35:17.597Z,1.70
2022-09-14T10:38:07.523Z,1.65
2022-09-14T10:40:39.740Z,1.88
2022-09-14T10:43:16.104Z,2.05
2022-09-14T10:45:51.007Z,2.90
2022-09-14T10:48:43.625Z,2.50
2022-09-14T10:51:30.229Z,1.60
2022-09-14T10:54:09.567Z,1.30
2022-09-14T10:56:47.857Z,1.00
2022-09-14T10:59:28.325Z,1.05
2022-09-14T11:02:25.133Z,0.50
2022-09-14T11:05:13.142Z,0.30
2022-09-14T11:07:52.995Z,0.60
2022-09-14T11:10:31.174Z,0.70
2022-09-14T11:13:21.855Z,0.98
2022-09-14T11:15:58.136Z,1.55
2022-09-14T11:18:34.051Z,2.40
2022-09-14T11:21:09.749Z,2.28
2022-09-14T11:23:46.645Z,2.33
2022-09-14T11:26:21.840Z,2.78
2022-09-14T11:28:55.190Z,3.28
2022-09-14T11:31:27.717Z,4.00
2022-09-14T11:34:00.028Z,4.32
2022-09-14T11:36:32.394Z,4.65
2022-09-14T11:39:06.986Z,5.25
2022-09-14T11:41:42.858Z,5.47
2022-09-14T11:44:16.961Z,5.38
2022-09-14T11:46:51.946Z,6.40
2022-09-14T11:49:25.766Z,6.28
2022-09-14T11:51:56.975Z,8.20
2022-09-14T11:54:25.787Z,15.18
2022-09-14T11:57:00.076Z,9.27
2022-09-14T11:59:50.414Z,7.53
2022-09-14T12:02:58.418Z,10.68
2022-09-14T12:05:35.521Z,6.15
2022-09-14T12:08:06.854Z,7.10
2022-09-14T12:11:03.480Z,6.13
2022-09-14T12:13:33.734Z,6.55
2022-09-14T12:16:04.453Z,6.22
2022-09-14T12:18:34.030Z,6.95
2022-09-14T12:21:09.341Z,6.90
2022-09-14T12:23:51.975Z,7.43
2022-09-14T12:26:31.077Z,8.57
2022-09-14T12:29:08.879Z,7.47
2022-09-14T12:32:03.253Z,8.30
2022-09-14T12:34:33.299Z,8.27
2022-09-14T12:37:29.653Z,9.55
2022-09-14T12:40:38.122Z,9.18
2022-09-14T12:43:49.316Z,7.13
2022-09-14T12:46:41.519Z,6.47
2022-09-14T12:49:29.109Z,6.60
2022-09-14T12:52:00.276Z,6.38
2022-09-14T12:54:40.434Z,5.65
2022-09-14T12:57:27.514Z,4.15
2022-09-14T13:00:04.837Z,3.85
2022-09-14T13:03:10.445Z,3.55
2022-09-14T13:05:39.020Z,4.57
2022-09-14T13:08:12.595Z,5.47
2022-09-14T13:10:50.002Z,6.03
2022-09-14T13:13:22.449Z,3.38
2022-09-14T13:15:54.544Z,1.00
2022-09-14T13:18:33.499Z,0.45
2022-09-14T13:21:03.301Z,0.50
2022-09-14T13:23:36.982Z,0.30
2022-09-14T13:26:11.682Z,0.30
2022-09-14T13:28:43.118Z,0.30
2022-09-14T13:31:15.251Z,0.60
2022-09-14T13:33:50.981Z,1.00
2022-09-14T13:36:22.880Z,1.92
2022-09-14T13:38:52.216Z,1.88
2022-09-14T13:41:23.503Z,2.83
2022-09-14T13:43:55.430Z,3.20
2022-09-14T13:46:25.028Z,3.53
2022-09-14T13:48:55.500Z,3.53
2022-09-14T13:51:26.065Z,3.65
2022-09-14T13:53:56.744Z,3.38
2022-09-14T13:56:28.259Z,3.45
2022-09-14T13:59:17.535Z,2.38
2022-09-14T14:01:54.016Z,2.85
2022-09-14T14:04:30.901Z,2.15
2022-09-14T14:07:09.521Z,2.85
2022-09-14T14:09:43.694Z,1.98
2022-09-14T14:12:13.779Z,2.58
2022-09-14T14:14:42.042Z,2.72
2022-09-14T14:17:25.129Z,2.45
2022-09-14T14:19:56.705Z,2.58
2022-09-14T14:22:29.090Z,3.50
2022-09-14T14:25:14.501Z,3.97
2022-09-14T14:27:46.360Z,4.43
2022-09-14T14:30:16.856Z,4.68
2022-09-14T14:32:45.033Z,4.28
2022-09-14T14:35:20.058Z,5.50
2022-09-14T14:37:48.894Z,6.13
2022-09-14T14:40:18.504Z,5.65
2022-09-14T14:42:47.867Z,7.13
2022-09-14T14:45:18.977Z,5.80
2022-09-14T14:47:47.567Z,5.30
2022-09-14T14:50:18.795Z,4.75
2022-09-14T14:52:47.214Z,4.13
2022-09-14T14:55:15.572Z,3.88
2022-09-14T14:57:43.759Z,3.50
2022-09-14T15:00:15.846Z,4.35
2022-09-14T15:02:44.943Z,4.90
2022-09-14T15:05:14.432Z,5.65
2022-09-14T15:07:44.092Z,6.22
2022-09-14T15:10:16.254Z,5.60
2022-09-14T15:12:45.196Z,2.30
2022-09-14T15:15:15.085Z,1.73
2022-09-14T15:17:43.383Z,2.17
2022-09-14T15:20:12.448Z,1.65
2022-09-14T15:22:42.822Z,1.98
2022-09-14T15:25:13.309Z,1.70
2022-09-14T15:27:42.122Z,1.63
2022-09-14T15:30:12.365Z,2.30
2022-09-14T15:32:41.047Z,2.90
2022-09-14T15:35:12.000Z,2.42
2022-09-14T15:37:40.340Z,2.40
2022-09-14T15:40:09.755Z,2.47
2022-09-14T15:42:39.398Z,2.28
2022-09-14T15:45:08.919Z,1.92
2022-09-14T15:47:37.143Z,1.90
2022-09-14T15:50:06.716Z,2.30
2022-09-14T15:52:37.066Z,2.60
2022-09-14T15:55:05.909Z,2.20
2022-09-14T15:57:34.272Z,2.63
2022-09-14T16:00:06.848Z,2.92
2022-09-14T16:02:35.626Z,3.15
2022-09-14T16:05:03.981Z,2.85
2022-09-14T16:07:32.137Z,3.20
2022-09-14T16:10:00.485Z,2.88
2022-09-14T16:12:28.712Z,3.20
2022-09-14T16:14:56.898Z,3.50
2022-09-14T16:17:26.524Z,3.72
2022-09-14T16:19:54.751Z,3.67
2022-09-14T16:22:23.129Z,3.70
2022-09-14T16:24:51.350Z,3.50
2022-09-14T16:27:19.750Z,3.15
2022-09-14T16:29:47.940Z,4.28
2022-09-14T16:32:16.137Z,2.80
2022-09-14T16:34:45.619Z,4.13
2022-09-14T16:37:13.845Z,3.42
2022-09-14T16:39:42.033Z,2.95
2022-09-14T16:42:10.212Z,2.85
2022-09-14T16:44:38.487Z,2.90
2022-09-14T16:47:06.982Z,4.00
2022-09-14T16:49:37.200Z,3.15
2022-09-14T16:52:06.829Z,3.30
2022-09-14T16:54:35.033Z,2.88
2022-09-14T16:57:03.209Z,2.67
2022-09-14T16:59:31.424Z,3.35
2022-09-14T17:01:59.987Z,3.33
2022-09-14T17:04:28.237Z,3.33
2022-09-14T17:06:56.939Z,3.33
2022-09-14T17:09:28.381Z,3.72
2022-09-14T17:11:58.218Z,3.80
2022-09-14T17:14:28.408Z,3.50
2022-09-14T17:16:57.283Z,3.83
2022-09-14T17:19:26.838Z,4.22
2022-09-14T17:21:55.685Z,4.07
2022-09-14T17:24:24.249Z,4.10
2022-09-14T17:26:53.963Z,3.77
2022-09-14T17:29:22.311Z,3.80
2022-09-14T17:31:50.710Z,3.33
2022-09-14T17:34:19.152Z,3.33
2022-09-14T17:36:47.654Z,3.35
2022-09-14T17:39:16.530Z,2.92
2022-09-14T17:41:44.967Z,2.83
2022-09-14T17:44:16.110Z,3.67
2022-09-14T17:46:52.203Z,2.55
2022-09-14T17:49:21.806Z,2.95
2022-09-14T17:51:50.857Z,3.63
2022-09-14T17:54:19.852Z,3.17
2022-09-14T17:56:48.226Z,3.50
2022-09-14T17:59:20.287Z,3.80
2022-09-14T18:01:49.198Z,4.97
2022-09-14T18:04:17.943Z,3.95
2022-09-14T18:06:47.285Z,4.10
2022-09-14T18:09:17.221Z,3.47
2022-09-14T18:11:46.053Z,3.95
2022-09-14T18:14:15.351Z,4.55
2022-09-14T18:16:45.915Z,4.93
2022-09-14T18:19:15.496Z,5.05
2022-09-14T18:21:45.903Z,5.38
2022-09-14T18:24:16.232Z,4.43
2022-09-14T18:26:46.212Z,5.05
2022-09-14T18:29:16.499Z,4.55
2022-09-14T18:31:46.246Z,5.00
2022-09-14T18:34:14.621Z,4.75
2022-09-14T18:36:42.833Z,3.85
2022-09-14T18:39:11.433Z,4.22
2022-09-14T18:41:40.112Z,4.60
2022-09-14T18:44:08.642Z,3.55
2022-09-14T18:46:38.697Z,2.97
2022-09-14T18:49:08.421Z,3.67
2022-09-14T18:51:36.898Z,3.10
2022-09-14T18:54:06.892Z,3.40
2022-09-14T18:56:38.300Z,3.78
2022-09-14T18:59:08.529Z,4.07
2022-09-14T19:01:38.026Z,2.72
2022-09-14T19:04:10.702Z,4.43
2022-09-14T19:06:41.519Z,3.60
2022-09-14T19:09:10.864Z,3.20
2022-09-14T19:11:39.119Z,3.05
2022-09-14T19:14:10.830Z,3.40
2022-09-14T19:16:40.619Z,2.97
2022-09-14T19:19:14.153Z,3.25
2022-09-14T19:21:42.373Z,3.72
2022-09-14T19:24:12.981Z,6.28
2022-09-14T19:26:45.451Z,6.13
2022-09-14T19:29:14.664Z,5.95
2022-09-14T19:31:43.140Z,5.85
2022-09-14T19:34:13.079Z,7.18
2022-09-14T19:36:41.294Z,5.90
2022-09-14T19:39:09.802Z,6.85
2022-09-14T19:41:38.297Z,5.63
2022-09-14T19:44:07.800Z,18.50
2022-09-14T19:46:39.571Z,8.95
2022-09-14T19:49:08.598Z,8.57
2022-09-14T19:51:38.176Z,7.38
2022-09-14T19:54:06.407Z,6.25
2022-09-14T19:56:35.074Z,7.50
2022-09-14T19:59:05.158Z,7.90
2022-09-14T20:01:35.260Z,8.02
2022-09-14T20:04:04.466Z,17.40
2022-09-14T20:06:34.782Z,9.75
2022-09-14T20:09:06.045Z,8.70
2022-09-14T20:11:36.303Z,9.32
2022-09-14T20:14:06.534Z,9.85
2022-09-14T20:16:36.553Z,9.38
2022-09-14T20:19:09.468Z,9.65
2022-09-14T20:21:38.132Z,13.45
2022-09-14T20:24:18.147Z,12.88
2022-09-14T20:26:47.724Z,13.90
2022-09-14T20:29:16.548Z,12.38
2022-09-14T20:31:45.153Z,21.98
2022-09-14T20:34:14.324Z,16.73
2022-09-14T20:36:42.763Z,19.10
2022-09-14T20:39:12.505Z,18.13
2022-09-14T20:41:41.323Z,18.70
2022-09-14T20:44:10.531Z,19.20
2022-09-14T20:46:40.235Z,20.55
2022-09-14T20:49:11.331Z,20.25
2022-09-14T20:51:40.224Z,20.73
2022-09-14T20:54:10.494Z,21.27
2022-09-14T20:56:40.653Z,24.45
2022-09-14T20:59:12.482Z,24.83
2022-09-14T21:01:42.903Z,27.88
2022-09-14T21:04:14.408Z,29.17
2022-09-14T21:06:44.807Z,29.60
2022-09-14T21:09:14.574Z,28.60
2022-09-14T21:11:45.866Z,30.27
2022-09-14T21:14:15.337Z,32.13
2022-09-14T21:16:46.121Z,31.50
2022-09-14T21:19:24.018Z,32.72
2022-09-14T21:21:52.759Z,30.95
2022-09-14T21:24:21.969Z,32.28
2022-09-14T21:26:51.785Z,31.80
2022-09-14T21:29:23.783Z,31.75
2022-09-14T21:31:53.241Z,29.52
2022-09-14T21:34:21.376Z,32.30
2022-09-14T21:36:51.758Z,31.58
2022-09-14T21:39:23.145Z,31.15
2022-09-14T21:41:58.449Z,31.27
2022-09-14T21:44:31.484Z,32.65
2022-09-14T21:47:00.074Z,34.33
2022-09-14T21:49:28.288Z,31.95
2022-09-14T21:51:56.562Z,33.78
2022-09-14T21:54:24.827Z,40.00
2022-09-14T21:56:55.043Z,43.45
2022-09-14T21:59:24.816Z,32.17
2022-09-14T22:01:53.162Z,28.98
2022-09-14T22:04:23.178Z,23.35
2022-09-14T22:06:52.985Z,24.15
2022-09-14T22:09:23.574Z,31.42
2022-09-14T22:11:51.770Z,31.48
2022-09-14T22:14:23.658Z,30.25
2022-09-14T22:16:52.085Z,35.50
2022-09-14T22:19:22.693Z,40.75
2022-09-14T22:21:52.067Z,38.30
2022-09-14T22:24:22.780Z,42.47
2022-09-14T22:26:51.196Z,44.58
2022-09-14T22:29:21.404Z,47.15
2022-09-14T22:31:49.871Z,48.58
2022-09-14T22:34:18.496Z,48.40
2022-09-14T22:36:46.695Z,44.03
2022-09-14T22:39:15.179Z,46.38
2022-09-14T22:41:43.499Z,47.72
2022-09-14T22:44:13.448Z,48.45
2022-09-14T22:46:43.220Z,49.58
2022-09-14T22:49:11.736Z,50.15
2022-09-14T22:51:39.954Z,48.03
2022-09-14T22:54:08.650Z,45.63
2022-09-14T22:56:38.696Z,47.22
2022-09-14T22:59:08.749Z,45.70
2022-09-14T23:01:39.724Z,44.65
2022-09-14T23:04:11.164Z,42.10
2022-09-14T23:06:43.149Z,44.42
2022-09-14T23:09:13.957Z,44.33
2022-09-14T23:11:44.604Z,46.75
2022-09-14T23:14:12.927Z,49.72
2022-09-14T23:16:41.172Z,53.15
2022-09-14T23:19:16.043Z,51.83
2022-09-14T23:21:44.167Z,51.05
2022-09-14T23:24:12.809Z,50.30
2022-09-14T23:26:41.186Z,51.35
2022-09-14T23:29:16.094Z,52.20
2022-09-14T23:31:44.767Z,54.00
2022-09-14T23:34:14.639Z,52.80
2022-09-14T23:36:42.842Z,55.15
2022-09-14T23:39:11.102Z,53.35
2022-09-14T23:41:40.040Z,55.78
2022-09-14T23:44:08.509Z,52.83
2022-09-14T23:46:36.662Z,55.45
2022-09-14T23:49:04.922Z,51.67
2022-09-14T23:51:34.484Z,51.22
2022-09-14T23:54:02.642Z,52.75
2022-09-14T23:56:31.070Z,52.00
2022-09-14T23:58:59.613Z,54.85
